sensor_id;sensor_type;location;lat;lon;timestamp;pressure;altitude;pressure_sealevel;temperature;humidity
46392;BME280;32098;49.448;7.904;2023-11-19T00:00:08;97998.44;;;6.38;100.00
46392;BME280;32098;49.448;7.904;2023-11-19T00:02:40;98023.91;;;6.46;100.00
46392;BME280;32098;49.448;7.904;2023-11-19T00:05:08;98009.81;;;6.52;100.00
46392;BME280;32098;49.448;7.904;2023-11-19T00:07:36;98017.16;;;6.56;100.00
46392;BME280;32098;49.448;7.904;2023-11-19T00:10:03;97976.22;;;6.39;100.00
46392;BME280;32098;49.448;7.904;2023-11-19T00:12:33;98002.66;;;6.52;100.00
46392;BME280;32098;49.448;7.904;2023-11-19T00:15:00;98026.53;;;6.59;100.00
46392;BME280;32098;49.448;7.904;2023-11-19T00:17:27;98012.28;;;6.53;100.00
46392;BME280;32098;49.448;7.904;2023-11-19T00:19:54;98013.47;;;6.57;100.00
46392;BME280;32098;49.448;7.904;2023-11-19T00:22:20;98002.47;;;6.54;100.00
46392;BME280;32098;49.448;7.904;2023-11-19T00:24:48;98008.56;;;6.61;100.00
46392;BME280;32098;49.448;7.904;2023-11-19T00:27:16;97995.09;;;6.62;100.00
46392;BME280;32098;49.448;7.904;2023-11-19T00:29:43;97997.34;;;6.59;100.00
46392;BME280;32098;49.448;7.904;2023-11-19T00:32:11;97993.03;;;6.64;100.00
46392;BME280;32098;49.448;7.904;2023-11-19T00:34:38;98003.63;;;6.64;100.00
46392;BME280;32098;49.448;7.904;2023-11-19T00:37:05;97994.25;;;6.62;100.00
46392;BME280;32098;49.448;7.904;2023-11-19T00:39:32;97996.72;;;6.63;100.00
46392;BME280;32098;49.448;7.904;2023-11-19T00:41:58;98003.81;;;6.69;100.00
46392;BME280;32098;49.448;7.904;2023-11-19T00:44:25;98001.16;;;6.69;100.00
46392;BME280;32098;49.448;7.904;2023-11-19T00:46:51;97997.13;;;6.60;100.00
46392;BME280;32098;49.448;7.904;2023-11-19T00:49:18;98002.22;;;6.62;100.00
46392;BME280;32098;49.448;7.904;2023-11-19T00:51:45;98008.75;;;6.66;100.00
46392;BME280;32098;49.448;7.904;2023-11-19T00:54:12;97994.25;;;6.68;100.00
46392;BME280;32098;49.448;7.904;2023-11-19T00:56:38;97984.84;;;6.73;100.00
46392;BME280;32098;49.448;7.904;2023-11-19T00:59:06;97990.56;;;6.69;100.00
46392;BME280;32098;49.448;7.904;2023-11-19T01:01:33;97987.69;;;6.78;100.00
46392;BME280;32098;49.448;7.904;2023-11-19T01:03:59;97964.44;;;6.73;100.00
46392;BME280;32098;49.448;7.904;2023-11-19T01:06:30;97980.75;;;6.77;100.00
46392;BME280;32098;49.448;7.904;2023-11-19T01:08:57;97979.72;;;6.78;100.00
46392;BME280;32098;49.448;7.904;2023-11-19T01:11:25;98011.78;;;6.76;100.00
46392;BME280;32098;49.448;7.904;2023-11-19T01:13:52;97995.81;;;6.83;100.00
46392;BME280;32098;49.448;7.904;2023-11-19T01:16:19;97966.47;;;6.71;100.00
46392;BME280;32098;49.448;7.904;2023-11-19T01:18:47;97988.91;;;6.82;100.00
46392;BME280;32098;49.448;7.904;2023-11-19T01:21:15;97949.78;;;6.57;100.00
46392;BME280;32098;49.448;7.904;2023-11-19T01:23:42;97992.75;;;6.86;100.00
46392;BME280;32098;49.448;7.904;2023-11-19T01:26:12;97996.59;;;6.90;100.00
46392;BME280;32098;49.448;7.904;2023-11-19T01:28:39;97992.78;;;6.79;100.00
46392;BME280;32098;49.448;7.904;2023-11-19T01:31:18;97983.16;;;6.85;100.00
46392;BME280;32098;49.448;7.904;2023-11-19T01:33:44;97960.53;;;6.76;100.00
46392;BME280;32098;49.448;7.904;2023-11-19T01:36:14;97976.81;;;6.86;100.00
46392;BME280;32098;49.448;7.904;2023-11-19T01:38:41;97953.72;;;6.93;100.00
46392;BME280;32098;49.448;7.904;2023-11-19T01:41:08;97953.72;;;6.93;100.00
46392;BME280;32098;49.448;7.904;2023-11-19T01:43:37;97967.44;;;6.83;100.00
46392;BME280;32098;49.448;7.904;2023-11-19T01:46:05;97959.00;;;6.93;100.00
46392;BME280;32098;49.448;7.904;2023-11-19T01:48:34;97961.84;;;6.98;100.00
46392;BME280;32098;49.448;7.904;2023-11-19T01:51:02;97965.72;;;7.02;100.00
46392;BME280;32098;49.448;7.904;2023-11-19T01:53:30;97953.69;;;6.99;100.00
46392;BME280;32098;49.448;7.904;2023-11-19T01:55:58;97952.00;;;7.05;100.00
46392;BME280;32098;49.448;7.904;2023-11-19T01:58:25;97952.44;;;7.02;100.00
46392;BME280;32098;49.448;7.904;2023-11-19T02:00:51;97950.22;;;6.99;100.00
46392;BME280;32098;49.448;7.904;2023-11-19T02:03:19;97944.03;;;7.05;100.00
46392;BME280;32098;49.448;7.904;2023-11-19T02:05:48;97927.94;;;7.00;100.00
46392;BME280;32098;49.448;7.904;2023-11-19T02:08:15;97932.22;;;7.01;100.00
46392;BME280;32098;49.448;7.904;2023-11-19T02:10:42;97926.75;;;6.96;100.00
46392;BME280;32098;49.448;7.904;2023-11-19T02:13:09;97916.97;;;6.90;100.00
46392;BME280;32098;49.448;7.904;2023-11-19T02:15:36;97919.34;;;7.04;100.00
46392;BME280;32098;49.448;7.904;2023-11-19T02:18:24;97924.66;;;7.04;100.00
46392;BME280;32098;49.448;7.904;2023-11-19T02:20:55;97927.50;;;7.09;100.00
46392;BME280;32098;49.448;7.904;2023-11-19T02:23:22;97890.41;;;6.90;100.00
46392;BME280;32098;49.448;7.904;2023-11-19T02:28:36;97923.50;;;7.25;100.00
46392;BME280;32098;49.448;7.904;2023-11-19T02:31:04;97898.66;;;7.19;100.00
46392;BME280;32098;49.448;7.904;2023-11-19T02:33:38;97913.03;;;7.30;100.00
46392;BME280;32098;49.448;7.904;2023-11-19T02:36:05;97909.59;;;7.29;100.00
46392;BME280;32098;49.448;7.904;2023-11-19T02:38:34;97904.28;;;7.29;100.00
46392;BME280;32098;49.448;7.904;2023-11-19T02:41:06;97909.75;;;7.35;100.00
46392;BME280;32098;49.448;7.904;2023-11-19T02:43:33;97912.25;;;7.29;100.00
46392;BME280;32098;49.448;7.904;2023-11-19T02:49:38;97903.03;;;7.32;100.00
46392;BME280;32098;49.448;7.904;2023-11-19T02:52:05;97895.06;;;7.32;100.00
46392;BME280;32098;49.448;7.904;2023-11-19T02:54:33;97880.75;;;7.33;100.00
46392;BME280;32098;49.448;7.904;2023-11-19T02:57:01;97896.19;;;7.43;100.00
46392;BME280;32098;49.448;7.904;2023-11-19T02:59:30;97891.69;;;7.43;100.00
46392;BME280;32098;49.448;7.904;2023-11-19T03:02:05;97896.78;;;7.45;100.00
46392;BME280;32098;49.448;7.904;2023-11-19T03:04:39;97901.91;;;7.46;100.00
46392;BME280;32098;49.448;7.904;2023-11-19T03:07:07;97877.00;;;7.41;100.00
46392;BME280;32098;49.448;7.904;2023-11-19T03:09:35;97860.81;;;7.24;100.00
46392;BME280;32098;49.448;7.904;2023-11-19T03:12:02;97874.50;;;7.46;100.00
46392;BME280;32098;49.448;7.904;2023-11-19T03:14:33;97879.00;;;7.45;100.00
46392;BME280;32098;49.448;7.904;2023-11-19T03:17:02;97860.41;;;7.45;100.00
46392;BME280;32098;49.448;7.904;2023-11-19T03:19:30;97876.34;;;7.45;100.00
46392;BME280;32098;49.448;7.904;2023-11-19T03:21:56;97868.75;;;7.49;100.00
46392;BME280;32098;49.448;7.904;2023-11-19T03:24:23;97859.00;;;7.43;100.00
46392;BME280;32098;49.448;7.904;2023-11-19T03:26:51;97857.16;;;7.43;100.00
46392;BME280;32098;49.448;7.904;2023-11-19T03:29:18;97878.06;;;7.58;100.00
46392;BME280;32098;49.448;7.904;2023-11-19T03:31:44;97875.38;;;7.64;100.00
46392;BME280;32098;49.448;7.904;2023-11-19T03:34:11;97878.38;;;7.68;100.00
46392;BME280;32098;49.448;7.904;2023-11-19T03:36:38;97859.69;;;7.56;100.00
46392;BME280;32098;49.448;7.904;2023-11-19T03:39:06;97869.25;;;7.64;100.00
46392;BME280;32098;49.448;7.904;2023-11-19T03:41:33;97863.19;;;7.75;100.00
46392;BME280;32098;49.448;7.904;2023-11-19T03:44:02;97857.88;;;7.75;100.00
46392;BME280;32098;49.448;7.904;2023-11-19T03:46:29;97853.75;;;7.79;100.00
46392;BME280;32098;49.448;7.904;2023-11-19T03:48:57;97856.41;;;7.79;100.00
46392;BME280;32098;49.448;7.904;2023-11-19T03:51:23;97855.16;;;7.81;100.00
46392;BME280;32098;49.448;7.904;2023-11-19T03:53:51;97834.25;;;7.67;100.00
46392;BME280;32098;49.448;7.904;2023-11-19T03:56:17;97878.66;;;7.84;100.00
46392;BME280;32098;49.448;7.904;2023-11-19T03:58:44;97859.00;;;7.85;100.00
46392;BME280;32098;49.448;7.904;2023-11-19T04:01:11;97864.88;;;7.87;100.00
46392;BME280;32098;49.448;7.904;2023-11-19T04:03:41;97872.06;;;7.87;100.00
46392;BME280;32098;49.448;7.904;2023-11-19T04:06:11;97872.72;;;7.82;100.00
46392;BME280;32098;49.448;7.904;2023-11-19T04:08:37;97845.03;;;7.72;100.00
46392;BME280;32098;49.448;7.904;2023-11-19T04:11:04;97860.47;;;7.81;100.00
46392;BME280;32098;49.448;7.904;2023-11-19T04:13:31;97868.16;;;7.89;100.00
46392;BME280;32098;49.448;7.904;2023-11-19T04:15:58;97863.19;;;7.93;100.00
46392;BME280;32098;49.448;7.904;2023-11-19T04:18:25;97849.91;;;7.93;100.00
46392;BME280;32098;49.448;7.904;2023-11-19T04:20:52;97823.41;;;7.86;100.00
46392;BME280;32098;49.448;7.904;2023-11-19T04:23:19;97870.81;;;8.08;100.00
46392;BME280;32098;49.448;7.904;2023-11-19T04:25:45;97855.47;;;8.10;100.00
46392;BME280;32098;49.448;7.904;2023-11-19T04:28:12;97855.91;;;8.07;100.00
46392;BME280;32098;49.448;7.904;2023-11-19T04:30:40;97861.66;;;8.04;100.00
46392;BME280;32098;49.448;7.904;2023-11-19T04:33:06;97873.56;;;8.01;100.00
46392;BME280;32098;49.448;7.904;2023-11-19T04:35:33;97869.41;;;8.05;100.00
46392;BME280;32098;49.448;7.904;2023-11-19T04:38:00;97864.47;;;8.09;100.00
46392;BME280;32098;49.448;7.904;2023-11-19T04:40:26;97877.47;;;8.17;100.00
46392;BME280;32098;49.448;7.904;2023-11-19T04:42:53;97850.88;;;8.17;100.00
46392;BME280;32098;49.448;7.904;2023-11-19T04:45:19;97844.72;;;8.16;100.00
46392;BME280;32098;49.448;7.904;2023-11-19T04:47:46;97858.25;;;8.15;100.00
46392;BME280;32098;49.448;7.904;2023-11-19T04:50:13;97864.75;;;8.19;100.00
46392;BME280;32098;49.448;7.904;2023-11-19T04:52:40;97843.63;;;8.24;100.00
46392;BME280;32098;49.448;7.904;2023-11-19T04:55:07;97860.00;;;8.21;100.00
46392;BME280;32098;49.448;7.904;2023-11-19T04:57:33;97862.59;;;8.27;100.00
46392;BME280;32098;49.448;7.904;2023-11-19T05:00:00;97865.25;;;8.27;100.00
46392;BME280;32098;49.448;7.904;2023-11-19T05:02:27;97862.38;;;8.29;100.00
46392;BME280;32098;49.448;7.904;2023-11-19T05:04:54;97867.84;;;8.34;100.00
46392;BME280;32098;49.448;7.904;2023-11-19T05:07:21;97864.38;;;8.33;100.00
46392;BME280;32098;49.448;7.904;2023-11-19T05:09:47;97857.56;;;8.37;100.00
46392;BME280;32098;49.448;7.904;2023-11-19T05:12:14;97866.94;;;8.40;100.00
46392;BME280;32098;49.448;7.904;2023-11-19T05:14:41;97863.69;;;8.38;100.00
46392;BME280;32098;49.448;7.904;2023-11-19T05:17:17;97872.25;;;8.40;100.00
46392;BME280;32098;49.448;7.904;2023-11-19T05:19:45;97863.00;;;8.42;100.00
46392;BME280;32098;49.448;7.904;2023-11-19T05:22:13;97858.88;;;8.46;100.00
46392;BME280;32098;49.448;7.904;2023-11-19T05:24:39;97860.28;;;8.49;100.00
46392;BME280;32098;49.448;7.904;2023-11-19T05:27:07;97864.53;;;8.50;100.00
46392;BME280;32098;49.448;7.904;2023-11-19T05:29:34;97859.69;;;8.47;100.00
46392;BME280;32098;49.448;7.904;2023-11-19T05:32:01;97837.31;;;8.36;100.00
46392;BME280;32098;49.448;7.904;2023-11-19T05:34:28;97854.84;;;8.55;100.00
46392;BME280;32098;49.448;7.904;2023-11-19T05:36:55;97847.81;;;8.61;100.00
46392;BME280;32098;49.448;7.904;2023-11-19T05:39:22;97847.38;;;8.64;100.00
46392;BME280;32098;49.448;7.904;2023-11-19T05:41:48;97833.78;;;8.72;100.00
46392;BME280;32098;49.448;7.904;2023-11-19T05:44:15;97834.66;;;8.66;100.00
46392;BME280;32098;49.448;7.904;2023-11-19T05:46:42;97844.16;;;8.62;100.00
46392;BME280;32098;49.448;7.904;2023-11-19T05:49:10;97825.00;;;8.53;100.00
46392;BME280;32098;49.448;7.904;2023-11-19T05:51:38;97843.09;;;8.63;100.00
46392;BME280;32098;49.448;7.904;2023-11-19T05:54:09;97839.56;;;8.69;100.00
46392;BME280;32098;49.448;7.904;2023-11-19T05:56:36;97844.44;;;8.72;100.00
46392;BME280;32098;49.448;7.904;2023-11-19T05:59:03;97857.16;;;8.70;100.00
46392;BME280;32098;49.448;7.904;2023-11-19T06:01:34;97859.72;;;8.77;100.00
46392;BME280;32098;49.448;7.904;2023-11-19T06:04:01;97857.41;;;8.80;100.00
46392;BME280;32098;49.448;7.904;2023-11-19T06:06:30;97863.91;;;8.84;100.00
46392;BME280;32098;49.448;7.904;2023-11-19T06:08:56;97864.06;;;8.89;100.00
46392;BME280;32098;49.448;7.904;2023-11-19T06:11:23;97857.78;;;8.84;100.00
46392;BME280;32098;49.448;7.904;2023-11-19T06:13:53;97880.72;;;8.85;100.00
46392;BME280;32098;49.448;7.904;2023-11-19T06:16:20;97861.59;;;8.88;100.00
46392;BME280;32098;49.448;7.904;2023-11-19T06:18:46;97870.09;;;8.96;100.00
46392;BME280;32098;49.448;7.904;2023-11-19T06:21:13;97876.13;;;9.03;100.00
46392;BME280;32098;49.448;7.904;2023-11-19T06:23:40;97867.41;;;8.96;100.00
46392;BME280;32098;49.448;7.904;2023-11-19T06:26:06;97868.81;;;8.99;100.00
46392;BME280;32098;49.448;7.904;2023-11-19T06:28:33;97874.16;;;9.10;100.00
46392;BME280;32098;49.448;7.904;2023-11-19T06:31:00;97867.22;;;9.09;100.00
46392;BME280;32098;49.448;7.904;2023-11-19T06:33:27;97866.03;;;9.05;100.00
46392;BME280;32098;49.448;7.904;2023-11-19T06:35:53;97888.06;;;9.12;100.00
46392;BME280;32098;49.448;7.904;2023-11-19T06:38:23;97890.06;;;9.17;100.00
46392;BME280;32098;49.448;7.904;2023-11-19T06:40:50;97885.53;;;9.17;100.00
46392;BME280;32098;49.448;7.904;2023-11-19T06:43:20;97888.31;;;9.22;100.00
46392;BME280;32098;49.448;7.904;2023-11-19T06:45:47;97884.50;;;9.18;100.00
46392;BME280;32098;49.448;7.904;2023-11-19T06:48:14;97898.97;;;9.22;100.00
46392;BME280;32098;49.448;7.904;2023-11-19T06:50:41;97901.88;;;9.33;100.00
46392;BME280;32098;49.448;7.904;2023-11-19T06:53:08;97893.44;;;9.36;100.00
46392;BME280;32098;49.448;7.904;2023-11-19T06:55:37;97894.50;;;9.35;100.00
46392;BME280;32098;49.448;7.904;2023-11-19T06:58:03;97893.00;;;9.39;100.00
46392;BME280;32098;49.448;7.904;2023-11-19T07:00:30;97897.28;;;9.40;100.00
46392;BME280;32098;49.448;7.904;2023-11-19T07:02:59;97903.88;;;9.37;100.00
46392;BME280;32098;49.448;7.904;2023-11-19T07:05:26;97900.75;;;9.40;100.00
46392;BME280;32098;49.448;7.904;2023-11-19T07:07:54;97906.88;;;9.41;100.00
46392;BME280;32098;49.448;7.904;2023-11-19T07:10:22;97902.13;;;9.31;100.00
46392;BME280;32098;49.448;7.904;2023-11-19T07:12:48;97906.75;;;9.36;100.00
46392;BME280;32098;49.448;7.904;2023-11-19T07:15:16;97909.44;;;9.36;100.00
46392;BME280;32098;49.448;7.904;2023-11-19T07:17:44;97910.50;;;9.35;100.00
46392;BME280;32098;49.448;7.904;2023-11-19T07:20:11;97890.41;;;9.20;100.00
46392;BME280;32098;49.448;7.904;2023-11-19T07:22:43;97877.88;;;9.09;100.00
46392;BME280;32098;49.448;7.904;2023-11-19T07:25:13;97908.97;;;9.39;100.00
46392;BME280;32098;49.448;7.904;2023-11-19T07:27:40;97912.09;;;9.36;100.00
46392;BME280;32098;49.448;7.904;2023-11-19T07:30:06;97919.06;;;9.37;100.00
46392;BME280;32098;49.448;7.904;2023-11-19T07:32:37;97923.34;;;9.38;100.00
46392;BME280;32098;49.448;7.904;2023-11-19T07:35:06;97913.84;;;9.42;100.00
46392;BME280;32098;49.448;7.904;2023-11-19T07:37:33;97923.56;;;9.36;100.00
46392;BME280;32098;49.448;7.904;2023-11-19T07:40:00;97939.31;;;9.38;100.00
46392;BME280;32098;49.448;7.904;2023-11-19T07:42:26;97944.44;;;9.39;100.00
46392;BME280;32098;49.448;7.904;2023-11-19T07:44:53;97939.53;;;9.25;100.00
46392;BME280;32098;49.448;7.904;2023-11-19T07:47:22;97946.28;;;9.39;100.00
46392;BME280;32098;49.448;7.904;2023-11-19T07:49:52;97949.44;;;9.47;100.00
46392;BME280;32098;49.448;7.904;2023-11-19T07:52:19;97938.34;;;9.73;100.00
46392;BME280;32098;49.448;7.904;2023-11-19T07:54:47;97953.91;;;10.00;100.00
46392;BME280;32098;49.448;7.904;2023-11-19T07:57:14;97953.78;;;10.18;100.00
46392;BME280;32098;49.448;7.904;2023-11-19T07:59:41;97950.16;;;10.47;100.00
46392;BME280;32098;49.448;7.904;2023-11-19T08:02:08;97942.59;;;10.56;100.00
46392;BME280;32098;49.448;7.904;2023-11-19T08:04:35;97934.22;;;10.64;100.00
46392;BME280;32098;49.448;7.904;2023-11-19T08:07:02;97944.06;;;10.75;100.00
46392;BME280;32098;49.448;7.904;2023-11-19T08:09:29;97947.31;;;11.05;100.00
46392;BME280;32098;49.448;7.904;2023-11-19T08:11:57;97954.63;;;11.26;100.00
46392;BME280;32098;49.448;7.904;2023-11-19T08:14:24;97945.44;;;11.34;97.20
46392;BME280;32098;49.448;7.904;2023-11-19T08:16:51;97947.19;;;11.40;95.73
46392;BME280;32098;49.448;7.904;2023-11-19T08:19:17;97942.66;;;11.40;95.02
46392;BME280;32098;49.448;7.904;2023-11-19T08:21:44;97959.72;;;11.39;95.14
46392;BME280;32098;49.448;7.904;2023-11-19T08:24:11;97948.38;;;11.32;94.53
46392;BME280;32098;49.448;7.904;2023-11-19T08:26:38;97962.16;;;11.12;95.20
46392;BME280;32098;49.448;7.904;2023-11-19T08:29:05;97948.84;;;11.01;95.65
46392;BME280;32098;49.448;7.904;2023-11-19T08:31:33;97949.47;;;10.91;96.37
46392;BME280;32098;49.448;7.904;2023-11-19T08:33:59;97952.84;;;10.87;96.77
46392;BME280;32098;49.448;7.904;2023-11-19T08:36:26;97946.34;;;10.83;97.84
46392;BME280;32098;49.448;7.904;2023-11-19T08:38:54;97944.78;;;10.70;99.23
46392;BME280;32098;49.448;7.904;2023-11-19T08:41:21;97949.78;;;10.67;99.35
46392;BME280;32098;49.448;7.904;2023-11-19T08:43:49;97953.38;;;10.61;99.51
46392;BME280;32098;49.448;7.904;2023-11-19T08:46:17;97950.38;;;10.57;100.00
46392;BME280;32098;49.448;7.904;2023-11-19T08:48:43;97948.63;;;10.63;100.00
46392;BME280;32098;49.448;7.904;2023-11-19T08:51:10;97942.00;;;10.65;100.00
46392;BME280;32098;49.448;7.904;2023-11-19T08:53:37;97953.97;;;10.63;100.00
46392;BME280;32098;49.448;7.904;2023-11-19T08:56:04;97944.06;;;10.75;100.00
46392;BME280;32098;49.448;7.904;2023-11-19T08:58:31;97943.09;;;10.81;99.16
46392;BME280;32098;49.448;7.904;2023-11-19T09:00:58;97958.41;;;10.85;98.22
46392;BME280;32098;49.448;7.904;2023-11-19T09:03:25;97961.06;;;10.85;97.46
46392;BME280;32098;49.448;7.904;2023-11-19T09:05:57;97964.88;;;10.73;97.35
46392;BME280;32098;49.448;7.904;2023-11-19T09:08:24;97959.03;;;10.76;96.94
46392;BME280;32098;49.448;7.904;2023-11-19T09:10:51;97958.34;;;10.69;97.35
46392;BME280;32098;49.448;7.904;2023-11-19T09:13:17;97961.50;;;10.66;97.48
46392;BME280;32098;49.448;7.904;2023-11-19T09:15:44;97969.50;;;10.66;97.30
46392;BME280;32098;49.448;7.904;2023-11-19T09:18:11;97958.59;;;10.56;98.40
46392;BME280;32098;49.448;7.904;2023-11-19T09:20:38;97955.38;;;10.54;98.66
46392;BME280;32098;49.448;7.904;2023-11-19T09:23:05;97965.59;;;10.57;98.69
46392;BME280;32098;49.448;7.904;2023-11-19T09:25:33;97972.22;;;10.54;99.09
46392;BME280;32098;49.448;7.904;2023-11-19T09:28:03;97965.72;;;10.50;99.16
46392;BME280;32098;49.448;7.904;2023-11-19T09:30:30;97969.28;;;10.56;99.36
46392;BME280;32098;49.448;7.904;2023-11-19T09:32:57;97981.59;;;10.57;99.87
46392;BME280;32098;49.448;7.904;2023-11-19T09:35:23;97972.16;;;10.77;100.00
46392;BME280;32098;49.448;7.904;2023-11-19T09:37:50;97974.50;;;11.02;99.76
46392;BME280;32098;49.448;7.904;2023-11-19T09:40:18;97978.09;;;11.07;97.71
46392;BME280;32098;49.448;7.904;2023-11-19T09:42:45;97985.00;;;11.32;96.40
46392;BME280;32098;49.448;7.904;2023-11-19T09:45:16;97985.50;;;11.45;93.54
46392;BME280;32098;49.448;7.904;2023-11-19T09:47:46;97987.22;;;11.51;91.36
46392;BME280;32098;49.448;7.904;2023-11-19T09:50:17;97980.81;;;11.52;90.52
46392;BME280;32098;49.448;7.904;2023-11-19T09:52:47;97989.59;;;11.36;90.04
46392;BME280;32098;49.448;7.904;2023-11-19T09:55:14;97973.25;;;11.33;89.92
46392;BME280;32098;49.448;7.904;2023-11-19T09:57:41;97977.25;;;11.47;90.82
46392;BME280;32098;49.448;7.904;2023-11-19T10:00:09;97967.34;;;11.47;90.25
46392;BME280;32098;49.448;7.904;2023-11-19T10:02:38;97961.44;;;11.45;89.42
46392;BME280;32098;49.448;7.904;2023-11-19T10:05:07;97965.81;;;11.51;89.11
46392;BME280;32098;49.448;7.904;2023-11-19T10:07:33;97960.72;;;11.66;89.88
46392;BME280;32098;49.448;7.904;2023-11-19T10:10:01;97957.00;;;11.84;88.59
46392;BME280;32098;49.448;7.904;2023-11-19T10:12:28;97952.94;;;11.82;86.31
46392;BME280;32098;49.448;7.904;2023-11-19T10:14:57;97945.72;;;11.99;85.67
46392;BME280;32098;49.448;7.904;2023-11-19T10:17:28;97943.03;;;12.15;86.29
46392;BME280;32098;49.448;7.904;2023-11-19T10:19:56;97941.66;;;12.13;85.72
46392;BME280;32098;49.448;7.904;2023-11-19T10:22:23;97933.44;;;12.19;84.66
46392;BME280;32098;49.448;7.904;2023-11-19T10:24:50;97934.41;;;12.13;83.86
46392;BME280;32098;49.448;7.904;2023-11-19T10:27:24;97930.66;;;11.93;84.03
46392;BME280;32098;49.448;7.904;2023-11-19T10:29:51;97940.75;;;11.91;84.75
46392;BME280;32098;49.448;7.904;2023-11-19T10:32:18;97937.59;;;11.94;84.97
46392;BME280;32098;49.448;7.904;2023-11-19T10:35:04;97941.91;;;11.78;85.46
46392;BME280;32098;49.448;7.904;2023-11-19T10:37:31;97929.53;;;11.72;85.92
46392;BME280;32098;49.448;7.904;2023-11-19T10:39:59;97927.72;;;11.61;86.64
46392;BME280;32098;49.448;7.904;2023-11-19T10:42:26;97939.63;;;11.53;86.81
46392;BME280;32098;49.448;7.904;2023-11-19T10:44:52;97936.31;;;11.46;87.65
46392;BME280;32098;49.448;7.904;2023-11-19T10:47:19;97937.91;;;11.31;88.06
46392;BME280;32098;49.448;7.904;2023-11-19T10:50:04;97936.66;;;11.22;89.96
46392;BME280;32098;49.448;7.904;2023-11-19T10:52:32;97934.94;;;11.15;90.90
46392;BME280;32098;49.448;7.904;2023-11-19T10:55:00;97916.84;;;11.06;91.32
46392;BME280;32098;49.448;7.904;2023-11-19T10:57:34;97944.25;;;11.13;92.04
46392;BME280;32098;49.448;7.904;2023-11-19T11:00:03;97934.25;;;11.20;92.33
46392;BME280;32098;49.448;7.904;2023-11-19T11:02:40;97933.72;;;11.35;92.47
46392;BME280;32098;49.448;7.904;2023-11-19T11:05:09;97933.06;;;11.44;91.70
46392;BME280;32098;49.448;7.904;2023-11-19T11:07:38;97931.47;;;11.60;90.97
46392;BME280;32098;49.448;7.904;2023-11-19T11:10:08;97924.72;;;11.74;90.42
46392;BME280;32098;49.448;7.904;2023-11-19T11:12:36;97931.22;;;11.95;89.30
46392;BME280;32098;49.448;7.904;2023-11-19T11:15:05;97908.78;;;12.01;87.60
46392;BME280;32098;49.448;7.904;2023-11-19T11:17:33;97914.81;;;12.08;85.25
46392;BME280;32098;49.448;7.904;2023-11-19T11:20:01;97896.00;;;12.03;84.11
46392;BME280;32098;49.448;7.904;2023-11-19T11:22:35;97908.84;;;12.22;82.47
46392;BME280;32098;49.448;7.904;2023-11-19T11:25:23;97904.59;;;12.26;81.71
46392;BME280;32098;49.448;7.904;2023-11-19T11:28:18;97908.56;;;12.40;80.52
46392;BME280;32098;49.448;7.904;2023-11-19T11:39:36;97883.47;;;12.47;74.44
46392;BME280;32098;49.448;7.904;2023-11-19T11:45:09;97891.22;;;12.26;74.06
46392;BME280;32098;49.448;7.904;2023-11-19T11:50:13;97900.97;;;12.16;71.27
46392;BME280;32098;49.448;7.904;2023-11-19T11:55:29;97893.75;;;11.95;70.72
46392;BME280;32098;49.448;7.904;2023-11-19T11:58:00;97902.81;;;11.94;70.73
46392;BME280;32098;49.448;7.904;2023-11-19T12:00:29;97900.22;;;11.99;71.72
46392;BME280;32098;49.448;7.904;2023-11-19T12:02:59;97904.44;;;11.78;72.08
46392;BME280;32098;49.448;7.904;2023-11-19T12:05:26;97909.00;;;11.77;72.39
46392;BME280;32098;49.448;7.904;2023-11-19T12:08:01;97908.84;;;11.67;71.35
46392;BME280;32098;49.448;7.904;2023-11-19T12:10:30;97910.28;;;11.58;72.56
46392;BME280;32098;49.448;7.904;2023-11-19T12:13:00;97910.94;;;11.65;72.76
46392;BME280;32098;49.448;7.904;2023-11-19T12:15:27;97904.16;;;11.58;74.02
46392;BME280;32098;49.448;7.904;2023-11-19T12:17:54;97904.13;;;11.41;73.33
46392;BME280;32098;49.448;7.904;2023-11-19T12:20:23;97916.94;;;11.39;72.59
46392;BME280;32098;49.448;7.904;2023-11-19T12:22:53;97880.47;;;11.33;72.91
46392;BME280;32098;49.448;7.904;2023-11-19T12:25:20;97896.13;;;11.41;72.23
46392;BME280;32098;49.448;7.904;2023-11-19T12:27:48;97892.06;;;11.39;72.63
46392;BME280;32098;49.448;7.904;2023-11-19T12:30:33;97887.94;;;11.31;72.69
46392;BME280;32098;49.448;7.904;2023-11-19T12:33:00;97888.50;;;11.33;73.85
46392;BME280;32098;49.448;7.904;2023-11-19T12:35:26;97869.66;;;11.28;73.65
46392;BME280;32098;49.448;7.904;2023-11-19T12:37:53;97883.56;;;11.42;74.73
46392;BME280;32098;49.448;7.904;2023-11-19T12:40:22;97842.06;;;11.23;72.96
46392;BME280;32098;49.448;7.904;2023-11-19T12:42:53;97864.66;;;11.48;72.17
46392;BME280;32098;49.448;7.904;2023-11-19T12:45:21;97858.38;;;11.54;72.73
46392;BME280;32098;49.448;7.904;2023-11-19T12:47:50;97860.00;;;11.55;71.59
46392;BME280;32098;49.448;7.904;2023-11-19T12:50:19;97860.63;;;11.62;70.90
46392;BME280;32098;49.448;7.904;2023-11-19T12:52:55;97855.66;;;11.71;68.81
46392;BME280;32098;49.448;7.904;2023-11-19T12:55:30;97856.13;;;11.85;66.66
46392;BME280;32098;49.448;7.904;2023-11-19T12:57:57;97846.88;;;11.75;64.69
46392;BME280;32098;49.448;7.904;2023-11-19T13:00:26;97840.25;;;11.78;64.53
46392;BME280;32098;49.448;7.904;2023-11-19T13:02:54;97851.75;;;11.78;65.07
46392;BME280;32098;49.448;7.904;2023-11-19T13:05:24;97851.81;;;11.84;65.18
46392;BME280;32098;49.448;7.904;2023-11-19T13:08:07;97844.22;;;11.75;64.43
46392;BME280;32098;49.448;7.904;2023-11-19T13:10:50;97851.66;;;11.90;65.49
46392;BME280;32098;49.448;7.904;2023-11-19T13:13:17;97846.41;;;11.78;65.84
46392;BME280;32098;49.448;7.904;2023-11-19T13:15:43;97853.81;;;11.93;65.49
46392;BME280;32098;49.448;7.904;2023-11-19T13:18:11;97825.63;;;11.86;66.45
46392;BME280;32098;49.448;7.904;2023-11-19T13:20:38;97839.22;;;12.01;66.17
46392;BME280;32098;49.448;7.904;2023-11-19T13:23:06;97848.31;;;12.00;65.79
46392;BME280;32098;49.448;7.904;2023-11-19T13:25:36;97843.91;;;12.10;66.00
46392;BME280;32098;49.448;7.904;2023-11-19T13:28:03;97854.84;;;12.09;65.51